This is the latest recevied weather packets stored in our database for station/object KD7JB. If no packets are shown the sender has not sent any weather packets the latest 10 day(s).
| Time | Temp. | Humidity | Pressure | Rain* | Wind** | Luminosity | Snow |
|---|---|---|---|---|---|---|---|
| 1777411496 | 11.11° C | 53% | 1178.7 hPa | 0 mm | - | 570 W/m² | - |
| 1777411196 | 10.56° C | 54% | 1178.5 hPa | 0 mm | - | 588 W/m² | - |
| 1777410591 | 11.11° C | 52% | 1178.7 hPa | 0 mm | - | 683 W/m² | - |
| 1777410291 | 10.56° C | 55% | 1178.5 hPa | 0 mm | - | 743 W/m² | - |
| 1777409986 | 11.11° C | 55% | 1178.5 hPa | 0 mm | - | 719 W/m² | - |
| 1777408161 | 10° C | 55% | 1178.3 hPa | 0 mm | - | 399 W/m² | - |
| 1777407856 | 10° C | 54% | 1178.4 hPa | 0 mm | - | 388 W/m² | - |
| 1777407554 | 10° C | 54% | 1178.4 hPa | 0 mm | - | 465 W/m² | - |
| 1777407253 | 10° C | 54% | 1178.4 hPa | 0 mm | - | 710 W/m² | - |
| 1777406947 | 10° C | 55% | 1178.3 hPa | 0 mm | - | 523 W/m² | - |
| 1777406648 | 10.56° C | 56% | 1178.4 hPa | 0 mm | - | 419 W/m² | - |
| 1777406344 | 10° C | 54% | 1178.4 hPa | 0 mm | - | 447 W/m² | - |
| 1777406043 | 10° C | 55% | 1178.3 hPa | 0 mm | - | 498 W/m² | - |
| 1777404529 | 10° C | 57% | 1178.2 hPa | 0 mm | - | 583 W/m² | - |
| 1777402406 | 10.56° C | 55% | 1178.3 hPa | 0 mm | - | 703 W/m² | - |
| 1777400891 | 8.89° C | 58% | 1178.1 hPa | 0 mm | - | 514 W/m² | - |
| 1777397555 | 8.89° C | 58% | 1178 hPa | 0 mm | - | 531 W/m² | - |
| 1777396039 | 8.89° C | 63% | 1177.6 hPa | 0 mm | - | 550 W/m² | - |
| 1777395739 | 8.33° C | 61% | 1177.8 hPa | 0 mm | - | 568 W/m² | - |
| 1777395435 | 8.33° C | 63% | 1177.8 hPa | 0 mm | - | 545 W/m² | - |
| 1777392402 | 7.78° C | 60% | 1177.6 hPa | 0 mm | - | 396 W/m² | - |
| 1777391488 | 7.78° C | 59% | 1177.5 hPa | 0 mm | - | 341 W/m² | - |
| 1777391185 | 7.78° C | 60% | 1177.3 hPa | 0 mm | - | 309 W/m² | - |
| 1777390578 | 7.22° C | 60% | 1177.4 hPa | 0 mm | - | 272 W/m² | - |
| 1777390275 | 7.22° C | 60% | 1177.5 hPa | 0 mm | - | 288 W/m² | - |
* Rain latest hour (hover to see other rain measurements)
** Current wind speed in m/s (hover to see current wind gust speed)